createdAt,value
2016-05-31T00:00:59.361Z,82.51
2016-05-31T00:01:59.333Z,82.31
2016-05-31T00:02:59.320Z,82.51
2016-05-31T00:03:59.307Z,83.18
2016-05-31T00:04:59.294Z,82.7
2016-05-31T00:05:59.281Z,82.7
2016-05-31T00:06:59.268Z,82.79
2016-05-31T00:07:59.240Z,82.41
2016-05-31T00:08:59.243Z,82.41
2016-05-31T00:09:59.214Z,82.51
2016-05-31T00:10:59.185Z,82.7
2016-05-31T00:11:59.188Z,82.6
2016-05-31T00:12:59.174Z,82.7
2016-05-31T00:13:59.146Z,82.98
2016-05-31T00:14:58.962Z,83.08
2016-05-31T00:15:59.121Z,82.98
2016-05-31T00:16:59.076Z,82.85
2016-05-31T00:17:58.922Z,82.94
2016-05-31T00:18:59.066Z,82.94
2016-05-31T00:19:59.054Z,83.04
2016-05-31T00:20:59.025Z,83.04
2016-05-31T00:21:59.011Z,83.47
2016-05-31T00:22:58.998Z,83.14
2016-05-31T00:23:58.985Z,83.23
2016-05-31T00:24:58.942Z,82.79
2016-05-31T00:25:58.944Z,82.89
2016-05-31T00:26:58.916Z,82.98
2016-05-31T00:27:58.746Z,82.98
2016-05-31T00:28:58.890Z,82.65
2016-05-31T00:29:58.720Z,82.03
2016-05-31T00:30:58.708Z,81.89
2016-05-31T00:31:58.835Z,82.6
2016-05-31T00:32:58.822Z,82.7
2016-05-31T00:33:58.810Z,82.46
2016-05-31T00:34:58.797Z,82.75
2016-05-31T00:35:58.768Z,82.65
2016-05-31T00:36:58.755Z,82.18
2016-05-31T00:37:59.320Z,82.6
2016-05-31T00:38:58.714Z,82.37
2016-05-31T00:39:58.701Z,82.94
2016-05-31T00:40:58.687Z,82.56
2016-05-31T00:41:58.659Z,82.75
2016-05-31T00:42:58.646Z,82.27
2016-05-31T00:43:58.477Z,82.37
2016-05-31T00:44:58.620Z,82.56
2016-05-31T00:45:58.592Z,82.46
2016-05-31T00:46:58.423Z,82.08
2016-05-31T00:47:58.566Z,81.6
2016-05-31T00:48:58.554Z,81.7
2016-05-31T00:49:58.540Z,81.93
2016-05-31T00:50:58.355Z,81.84
2016-05-31T00:51:58.499Z,81.6
2016-05-31T00:52:58.626Z,81.41
2016-05-31T00:53:58.457Z,81.54
2016-05-31T00:54:58.444Z,81.35
2016-05-31T00:55:58.431Z,81.35
2016-05-31T00:56:58.403Z,81.54
2016-05-31T00:57:58.389Z,81.7
2016-05-31T00:58:58.377Z,81.89
2016-05-31T00:59:58.380Z,81.41
2016-05-31T01:00:58.335Z,81.31
2016-05-31T01:01:58.322Z,81.64
2016-05-31T01:02:58.309Z,81.54
2016-05-31T01:03:58.297Z,81.51
2016-05-31T01:04:58.283Z,81.31
2016-05-31T01:05:58.255Z,80.58
2016-05-31T01:06:58.227Z,80.78
2016-05-31T01:07:58.807Z,80.49
2016-05-31T01:08:58.200Z,81.07
2016-05-31T01:09:58.188Z,80.87
2016-05-31T01:10:58.174Z,80.58
2016-05-31T01:11:58.146Z,80.68
2016-05-31T01:12:58.133Z,80.4
2016-05-31T01:13:58.104Z,80.3
2016-05-31T01:14:57.951Z,80.01
2016-05-31T01:15:58.094Z,80.11
2016-05-31T01:16:58.065Z,80.3
2016-05-31T01:17:58.053Z,80.2
2016-05-31T01:18:58.040Z,80.01
2016-05-31T01:19:58.026Z,79.34
2016-05-31T01:20:57.998Z,79.91
2016-05-31T01:21:57.985Z,80.01
2016-05-31T01:22:58.159Z,80.35
2016-05-31T01:23:57.945Z,80.55
2016-05-31T01:24:57.931Z,80.16
2016-05-31T01:25:57.918Z,79.82
2016-05-31T01:26:57.748Z,80.26
2016-05-31T01:27:57.876Z,80.45
2016-05-31T01:28:57.864Z,80.35
2016-05-31T01:29:57.851Z,79.91
2016-05-31T01:30:57.822Z,79.68
2016-05-31T01:31:57.653Z,79.59
2016-05-31T01:32:57.796Z,79.97
2016-05-31T01:33:57.768Z,79.3
2016-05-31T01:34:57.755Z,79.68
2016-05-31T01:35:57.741Z,79.63
2016-05-31T01:36:57.714Z,80.07
2016-05-31T01:37:57.732Z,80.07
2016-05-31T01:38:57.688Z,80.35
2016-05-31T01:39:57.674Z,80.35
2016-05-31T01:40:57.646Z,80.35
2016-05-31T01:41:57.476Z,80.26
2016-05-31T01:42:57.620Z,80.35
2016-05-31T01:43:57.607Z,80.35
2016-05-31T01:44:57.579Z,80.45
2016-05-31T01:45:57.581Z,80.74
2016-05-31T01:46:57.396Z,80.55
2016-05-31T01:47:57.368Z,80.64
2016-05-31T01:48:57.527Z,80.26
2016-05-31T01:49:57.498Z,79.97
2016-05-31T01:50:57.485Z,80.35
2016-05-31T01:51:57.457Z,81.7
2016-05-31T01:52:57.287Z,81.22
2016-05-31T01:53:57.431Z,81.79
2016-05-31T01:54:57.418Z,81.7
2016-05-31T01:55:57.390Z,81.6
2016-05-31T01:56:57.392Z,81.41
2016-05-31T01:57:57.379Z,81.7
2016-05-31T01:58:57.350Z,81.85
2016-05-31T01:59:57.337Z,81.89
2016-05-31T02:00:57.325Z,81.7
2016-05-31T02:01:57.297Z,82.18
2016-05-31T02:02:57.267Z,81.56
2016-05-31T02:03:57.255Z,81.95
2016-05-31T02:04:57.241Z,82.42
2016-05-31T02:05:57.229Z,82.62
2016-05-31T02:06:57.216Z,82.42
2016-05-31T02:07:57.468Z,82.27
2016-05-31T02:08:57.174Z,83.09
2016-05-31T02:09:57.146Z,83
2016-05-31T02:10:57.149Z,83.09
2016-05-31T02:11:57.136Z,82.75
2016-05-31T02:12:57.107Z,82.32
2016-05-31T02:13:57.094Z,83
2016-05-31T02:14:57.082Z,82.81
2016-05-31T02:15:57.052Z,83.38
2016-05-31T02:16:57.040Z,83.76
2016-05-31T02:17:57.011Z,83.04
2016-05-31T02:18:56.843Z,83.76
2016-05-31T02:19:56.985Z,84.63
2016-05-31T02:20:56.957Z,84.34
2016-05-31T02:21:56.959Z,84.34
2016-05-31T02:22:57.524Z,85.01
2016-05-31T02:23:56.934Z,85.49
2016-05-31T02:24:56.905Z,85.11
2016-05-31T02:25:56.877Z,85.11
2016-05-31T02:26:56.864Z,84.34
2016-05-31T02:27:56.851Z,84.63
2016-05-31T02:28:56.666Z,84.63
2016-05-31T02:29:56.809Z,84.53
2016-05-31T02:30:56.796Z,85.21
2016-05-31T02:31:56.783Z,85.11
2016-05-31T02:32:56.755Z,84.53
2016-05-31T02:33:56.742Z,84.34
2016-05-31T02:34:56.729Z,84.53
2016-05-31T02:35:56.716Z,83.76
2016-05-31T02:36:56.703Z,83.95
2016-05-31T02:37:56.518Z,84
2016-05-31T02:38:56.646Z,84.82
2016-05-31T02:39:56.633Z,84.05
2016-05-31T02:40:56.619Z,83.81
2016-05-31T02:41:56.591Z,83.91
2016-05-31T02:42:56.578Z,84.19
2016-05-31T02:43:56.566Z,83.91
2016-05-31T02:44:56.552Z,84.38
2016-05-31T02:45:56.540Z,84.15
2016-05-31T02:46:56.510Z,84.05
2016-05-31T02:47:56.513Z,83.91
2016-05-31T02:48:56.485Z,83.61
2016-05-31T02:49:56.316Z,84.67
2016-05-31T02:50:56.444Z,84.63
2016-05-31T02:51:56.274Z,84.34
2016-05-31T02:52:56.262Z,84.67
2016-05-31T02:53:56.232Z,84.44
2016-05-31T02:54:56.392Z,85.21
2016-05-31T02:55:56.207Z,84.91
2016-05-31T02:56:56.195Z,84.25
2016-05-31T02:57:56.322Z,83.86
2016-05-31T02:58:56.309Z,84.44
2016-05-31T02:59:56.123Z,84.25
2016-05-31T03:00:56.284Z,84.34
2016-05-31T03:01:56.254Z,84.09
2016-05-31T03:02:56.242Z,84.15
2016-05-31T03:03:56.228Z,84.19
2016-05-31T03:04:56.216Z,84
2016-05-31T03:05:56.031Z,83.81
2016-05-31T03:06:56.189Z,83.23
2016-05-31T03:07:56.912Z,84.28
2016-05-31T03:08:56.133Z,83.71
2016-05-31T03:09:56.105Z,83.61
2016-05-31T03:10:55.950Z,83.14
2016-05-31T03:11:56.077Z,83.33
2016-05-31T03:12:55.909Z,83.14
2016-05-31T03:13:56.036Z,82.94
2016-05-31T03:14:55.883Z,83.91
2016-05-31T03:15:56.011Z,84
2016-05-31T03:16:55.841Z,85.15
2016-05-31T03:17:55.985Z,85.21
2016-05-31T03:18:55.800Z,85.58
2016-05-31T03:19:55.943Z,85.78
2016-05-31T03:20:55.930Z,85.68
2016-05-31T03:21:55.902Z,85.58
2016-05-31T03:22:56.171Z,86.35
2016-05-31T03:23:55.876Z,85.68
2016-05-31T03:24:55.863Z,86.16
2016-05-31T03:25:55.851Z,85.58
2016-05-31T03:26:55.821Z,86.35
2016-05-31T03:27:55.808Z,86.45
2016-05-31T03:28:55.796Z,85.58
2016-05-31T03:29:55.767Z,85.21
2016-05-31T03:30:55.754Z,85.68
2016-05-31T03:31:55.585Z,85.97
2016-05-31T03:32:55.712Z,86.64
2016-05-31T03:33:55.700Z,86.16
2016-05-31T03:34:55.687Z,86.54
2016-05-31T03:35:55.659Z,86.35
2016-05-31T03:36:55.661Z,85.68
2016-05-31T03:37:55.476Z,85.58
2016-05-31T03:38:55.448Z,85.58
2016-05-31T03:39:55.591Z,85.3
2016-05-31T03:40:55.578Z,85.11
2016-05-31T03:41:55.565Z,85.49
2016-05-31T03:42:55.552Z,85.11
2016-05-31T03:43:55.524Z,85.21
2016-05-31T03:44:55.510Z,85.97
2016-05-31T03:45:55.483Z,86.25
2016-05-31T03:46:55.469Z,85.97
2016-05-31T03:47:55.456Z,86.25
2016-05-31T03:48:55.444Z,85.49
2016-05-31T03:49:55.428Z,85.88
2016-05-31T03:50:55.399Z,85.58
2016-05-31T03:51:55.385Z,86.16
2016-05-31T03:52:55.218Z,86.45
2016-05-31T03:53:55.360Z,86.25
2016-05-31T03:54:55.332Z,86.35
2016-05-31T03:55:55.319Z,86.93
2016-05-31T03:56:55.306Z,86.25
2016-05-31T03:57:55.277Z,86.35
2016-05-31T03:58:55.265Z,86.16
2016-05-31T03:59:55.251Z,86.16
2016-05-31T04:00:55.223Z,86.07
2016-05-31T04:01:55.225Z,86.07
2016-05-31T04:02:55.182Z,85.88
2016-05-31T04:03:55.184Z,86.35
2016-05-31T04:04:55.155Z,86.35
2016-05-31T04:05:55.143Z,86.83
2016-05-31T04:06:55.130Z,86.64
2016-05-31T04:07:54.960Z,86.83
2016-05-31T04:08:55.088Z,86.16
2016-05-31T04:09:55.076Z,86.16
2016-05-31T04:10:55.062Z,86.21
2016-05-31T04:11:55.033Z,86.45
2016-05-31T04:12:55.022Z,86.93
2016-05-31T04:13:55.008Z,86.74
2016-05-31T04:14:54.994Z,86.16
2016-05-31T04:15:54.966Z,86.83
2016-05-31T04:16:54.953Z,86.83
2016-05-31T04:17:54.941Z,86.93
2016-05-31T04:18:54.912Z,86.25
2016-05-31T04:19:54.899Z,86.74
2016-05-31T04:20:54.886Z,86.74
2016-05-31T04:21:54.701Z,86.93
2016-05-31T04:22:54.688Z,87.02
2016-05-31T04:23:54.832Z,86.83
2016-05-31T04:24:54.819Z,86.93
2016-05-31T04:25:54.634Z,86.93
2016-05-31T04:26:54.777Z,87.31
2016-05-31T04:27:54.765Z,87.12
2016-05-31T04:28:54.735Z,87.31
2016-05-31T04:29:54.722Z,87.12
2016-05-31T04:30:54.709Z,87.02
2016-05-31T04:31:54.698Z,87.7
2016-05-31T04:32:54.668Z,87.5
2016-05-31T04:33:54.655Z,86.83
2016-05-31T04:34:54.643Z,87.02
2016-05-31T04:35:54.629Z,87.21
2016-05-31T04:36:54.600Z,87.31
2016-05-31T04:37:54.604Z,87.65
2016-05-31T04:38:54.575Z,87.7
2016-05-31T04:39:54.390Z,87.5
2016-05-31T04:40:54.377Z,87.21
2016-05-31T04:41:54.521Z,87.31
2016-05-31T04:42:54.492Z,87.41
2016-05-31T04:43:54.479Z,88.08
2016-05-31T04:44:54.466Z,87.31
2016-05-31T04:45:54.453Z,87.21
2016-05-31T04:46:54.441Z,87.12
2016-05-31T04:47:54.427Z,87.21
2016-05-31T04:48:54.399Z,87.6
2016-05-31T04:49:54.386Z,87.98
2016-05-31T04:50:54.357Z,87.41
2016-05-31T04:51:54.344Z,87.41
2016-05-31T04:52:54.332Z,87.21
2016-05-31T04:53:54.319Z,87.41
2016-05-31T04:54:54.290Z,87.12
2016-05-31T04:55:54.277Z,87.41
2016-05-31T04:56:54.264Z,87.12
2016-05-31T04:57:54.251Z,87.12
2016-05-31T04:58:54.223Z,87.21
2016-05-31T04:59:54.209Z,87.7
2016-05-31T05:00:54.182Z,87.88
2016-05-31T05:01:54.168Z,87.88
2016-05-31T05:02:54.155Z,87.88
2016-05-31T05:03:54.127Z,87.79
2016-05-31T05:04:54.114Z,87.7
2016-05-31T05:05:53.929Z,87.31
2016-05-31T05:06:54.087Z,87.02
2016-05-31T05:07:54.060Z,87.31
2016-05-31T05:08:54.047Z,87.7
2016-05-31T05:09:54.033Z,87.98
2016-05-31T05:10:54.020Z,87.7
2016-05-31T05:11:53.991Z,87.74
2016-05-31T05:12:53.979Z,87.79
2016-05-31T05:13:53.966Z,87.31
2016-05-31T05:14:53.781Z,87.7
2016-05-31T05:15:53.925Z,87.21
2016-05-31T05:16:53.896Z,87.7
2016-05-31T05:17:53.883Z,87.88
2016-05-31T05:18:53.869Z,87.88
2016-05-31T05:19:53.858Z,87.88
2016-05-31T05:20:53.829Z,87.88
2016-05-31T05:21:53.832Z,88.17
2016-05-31T05:22:54.490Z,88.75
2016-05-31T05:23:53.790Z,88.56
2016-05-31T05:24:53.761Z,88.37
2016-05-31T05:25:53.748Z,88.46
2016-05-31T05:26:53.735Z,88.17
2016-05-31T05:27:53.707Z,88.46
2016-05-31T05:28:53.694Z,88.56
2016-05-31T05:29:53.681Z,88.56
2016-05-31T05:30:53.652Z,88.75
2016-05-31T05:31:53.640Z,88.65
2016-05-31T05:32:53.626Z,88.46
2016-05-31T05:33:53.614Z,88.46
2016-05-31T05:34:53.601Z,88.56
2016-05-31T05:35:53.588Z,87.79
2016-05-31T05:36:53.559Z,87.88
2016-05-31T05:37:53.546Z,87.88
2016-05-31T05:38:53.533Z,87.79
2016-05-31T05:39:53.505Z,87.98
2016-05-31T05:40:53.492Z,88.08
2016-05-31T05:41:53.478Z,88.17
2016-05-31T05:42:53.451Z,88.27
2016-05-31T05:43:53.437Z,88.37
2016-05-31T05:44:53.409Z,88.46
2016-05-31T05:45:53.239Z,88.08
2016-05-31T05:46:53.383Z,88.27
2016-05-31T05:47:53.370Z,88.08
2016-05-31T05:48:53.341Z,87.98
2016-05-31T05:49:53.328Z,88.46
2016-05-31T05:50:53.159Z,88.27
2016-05-31T05:51:53.303Z,88.08
2016-05-31T05:52:53.133Z,88.27
2016-05-31T05:53:53.276Z,87.7
2016-05-31T05:54:53.249Z,87.88
2016-05-31T05:55:53.235Z,87.88
2016-05-31T05:56:53.207Z,87.88
2016-05-31T05:57:53.202Z,87.98
2016-05-31T05:58:53.045Z,87.5
2016-05-31T05:59:53.230Z,87.02
2016-05-31T06:00:53.228Z,87.31
2016-05-31T06:01:53.241Z,87.41
2016-05-31T06:02:53.234Z,87.88
2016-05-31T06:03:53.230Z,87.88
2016-05-31T06:04:53.227Z,87.6
2016-05-31T06:05:53.224Z,87.7
2016-05-31T06:06:53.236Z,87.88
2016-05-31T06:07:53.527Z,87.79
2016-05-31T06:08:53.189Z,87.41
2016-05-31T06:09:53.181Z,87.6
2016-05-31T06:10:53.156Z,87.41
2016-05-31T06:11:53.162Z,87.7
2016-05-31T06:12:53.151Z,87.31
2016-05-31T06:13:53.107Z,87.79
2016-05-31T06:14:53.096Z,87.6
2016-05-31T06:15:52.913Z,87.5
2016-05-31T06:16:53.057Z,88.08
2016-05-31T06:17:53.045Z,88.08
2016-05-31T06:18:53.032Z,88.17
2016-05-31T06:19:53.020Z,87.6
2016-05-31T06:20:52.991Z,87.7
2016-05-31T06:21:52.979Z,88.17
2016-05-31T06:22:52.983Z,87.6
2016-05-31T06:23:53.344Z,87.5
2016-05-31T06:24:52.924Z,87.79
2016-05-31T06:25:52.913Z,87.7
2016-05-31T06:26:52.883Z,87.7
2016-05-31T06:27:52.871Z,87.41
2016-05-31T06:28:52.873Z,87.6
2016-05-31T06:29:52.845Z,87.5
2016-05-31T06:30:52.816Z,86.58
2016-05-31T06:31:52.803Z,86.78
2016-05-31T06:32:52.790Z,87.07
2016-05-31T06:33:52.776Z,86.68
2016-05-31T06:34:52.749Z,86.74
2016-05-31T06:35:52.751Z,86.88
2016-05-31T06:36:52.723Z,86.68
2016-05-31T06:37:53.725Z,87.21
2016-05-31T06:38:52.682Z,86.88
2016-05-31T06:39:52.668Z,86.88
2016-05-31T06:40:52.655Z,86.88
2016-05-31T06:41:52.627Z,86.88
2016-05-31T06:42:52.614Z,86.01
2016-05-31T06:43:52.601Z,86.21
2016-05-31T06:44:52.431Z,86.4
2016-05-31T06:45:52.559Z,85.63
2016-05-31T06:46:52.546Z,84.91
2016-05-31T06:47:52.519Z,85
2016-05-31T06:48:52.349Z,85.28
2016-05-31T06:49:52.492Z,86.3
2016-05-31T06:50:52.480Z,85.44
2016-05-31T06:51:52.450Z,85.44
2016-05-31T06:52:52.969Z,85.44
2016-05-31T06:53:52.987Z,85.25
2016-05-31T06:54:52.412Z,84.95
2016-05-31T06:55:52.243Z,85.15
2016-05-31T06:56:52.371Z,85.1
2016-05-31T06:57:52.357Z,84.71
2016-05-31T06:58:52.344Z,84.23
2016-05-31T06:59:52.316Z,84.42
2016-05-31T07:00:52.319Z,84.42
2016-05-31T07:01:52.290Z,84.91
2016-05-31T07:02:52.262Z,85.25
2016-05-31T07:03:52.264Z,85.48
2016-05-31T07:04:52.235Z,85.28
2016-05-31T07:05:52.223Z,85.19
2016-05-31T07:06:52.209Z,84.61
2016-05-31T07:07:52.947Z,84.61
2016-05-31T07:08:52.012Z,84.33
2016-05-31T07:09:52.156Z,84.61
2016-05-31T07:10:52.142Z,84.33
2016-05-31T07:11:52.114Z,84.42
2016-05-31T07:12:52.100Z,84.42
2016-05-31T07:13:52.089Z,84.23
2016-05-31T07:14:52.059Z,83.65
2016-05-31T07:15:52.047Z,84.04
2016-05-31T07:16:52.033Z,84.04
2016-05-31T07:17:52.020Z,84.04
2016-05-31T07:18:51.991Z,84.04
2016-05-31T07:19:51.980Z,82.79
2016-05-31T07:20:51.966Z,83.75
2016-05-31T07:21:51.953Z,83.18
2016-05-31T07:22:52.330Z,83.08
2016-05-31T07:23:52.100Z,83.08
2016-05-31T07:24:51.899Z,83.22
2016-05-31T07:25:51.885Z,82.98
2016-05-31T07:26:51.857Z,82.93
2016-05-31T07:27:51.829Z,82.84
2016-05-31T07:28:51.816Z,82.45
2016-05-31T07:29:51.818Z,82.35
2016-05-31T07:30:51.805Z,81.68
2016-05-31T07:31:51.777Z,82.16
2016-05-31T07:32:51.765Z,82.64
2016-05-31T07:33:51.595Z,82.64
2016-05-31T07:34:51.723Z,82.26
2016-05-31T07:35:51.709Z,81.87
2016-05-31T07:36:51.696Z,81.97
2016-05-31T07:37:52.074Z,81.49
2016-05-31T07:38:51.515Z,81.3
2016-05-31T07:39:51.642Z,81.78
2016-05-31T07:40:51.629Z,81.3
2016-05-31T07:41:51.664Z,80.73
2016-05-31T07:42:51.447Z,80.57
2016-05-31T07:43:51.575Z,80.24
2016-05-31T07:44:51.561Z,80.57
2016-05-31T07:45:51.550Z,80.43
2016-05-31T07:46:51.537Z,81.05
2016-05-31T07:47:51.508Z,80.19
2016-05-31T07:48:51.494Z,80.09
2016-05-31T07:49:51.481Z,79.9
2016-05-31T07:50:51.313Z,79.8
2016-05-31T07:51:51.441Z,79.8
2016-05-31T07:52:51.427Z,79.42
2016-05-31T07:53:52.680Z,79.52
2016-05-31T07:54:51.385Z,79.8
2016-05-31T07:55:51.373Z,79.52
2016-05-31T07:56:51.344Z,79.13
2016-05-31T07:57:51.347Z,79.61
2016-05-31T07:58:51.334Z,79.71
2016-05-31T07:59:51.305Z,79.42
2016-05-31T08:00:51.277Z,79.61
2016-05-31T08:01:51.296Z,79.42
2016-05-31T08:02:51.251Z,79.32
2016-05-31T08:03:51.237Z,78.88
2016-05-31T08:04:51.226Z,78.98
2016-05-31T08:05:51.213Z,79.03
2016-05-31T08:06:51.199Z,79.07
2016-05-31T08:07:51.045Z,78.98
2016-05-31T08:08:51.704Z,79.13
2016-05-31T08:09:51.144Z,79.61
2016-05-31T08:10:51.148Z,79.07
2016-05-31T08:11:51.120Z,78.59
2016-05-31T08:12:51.075Z,78.5
2016-05-31T08:13:51.077Z,79.07
2016-05-31T08:14:51.065Z,78.11
2016-05-31T08:15:51.036Z,77.63
2016-05-31T08:16:51.039Z,77.06
2016-05-31T08:17:51.010Z,77.09
2016-05-31T08:18:50.841Z,77.09
2016-05-31T08:19:50.968Z,77.19
2016-05-31T08:20:50.971Z,76.52
2016-05-31T08:21:50.958Z,77.19
2016-05-31T08:22:51.508Z,76.71
2016-05-31T08:23:50.994Z,76.71
2016-05-31T08:24:50.888Z,76.42
2016-05-31T08:25:50.735Z,76.14
2016-05-31T08:26:50.863Z,76.61
2016-05-31T08:27:50.833Z,76.71
2016-05-31T08:28:50.821Z,76.71
2016-05-31T08:29:50.807Z,76.52
2016-05-31T08:30:50.796Z,76.04
2016-05-31T08:31:50.782Z,76.36
2016-05-31T08:32:50.754Z,75.69
2016-05-31T08:33:50.756Z,75.21
2016-05-31T08:34:50.727Z,75.75
2016-05-31T08:35:50.559Z,75.4
2016-05-31T08:36:50.701Z,75.21
2016-05-31T08:37:50.533Z,75.84
2016-05-31T08:38:50.926Z,75.21
2016-05-31T08:39:50.648Z,75.11
2016-05-31T08:40:50.634Z,75.02
2016-05-31T08:41:50.465Z,75.59
2016-05-31T08:42:50.437Z,75.4
2016-05-31T08:43:50.580Z,74.34
2016-05-31T08:44:50.567Z,73.09
2016-05-31T08:45:50.554Z,73.86
2016-05-31T08:46:50.541Z,73.47
2016-05-31T08:47:50.512Z,72.8
2016-05-31T08:48:50.515Z,72.61
2016-05-31T08:49:50.487Z,72.42
2016-05-31T08:50:50.458Z,72.32
2016-05-31T08:51:50.445Z,72.52
2016-05-31T08:52:50.635Z,73.42
2016-05-31T08:53:50.450Z,73.86
2016-05-31T08:54:50.406Z,73.42
2016-05-31T08:55:50.394Z,72.65
2016-05-31T08:56:50.380Z,72.55
2016-05-31T08:57:50.211Z,72.55
2016-05-31T08:58:50.355Z,73.42
2016-05-31T08:59:50.341Z,72.55
2016-05-31T09:00:50.313Z,71.78
2016-05-31T09:01:50.129Z,71.97
2016-05-31T09:02:50.271Z,72.17
2016-05-31T09:03:50.274Z,72.55
2016-05-31T09:04:50.246Z,72.07
2016-05-31T09:05:50.232Z,72.07
2016-05-31T09:06:50.204Z,71.4
2016-05-31T09:07:50.551Z,71.24
2016-05-31T09:08:50.194Z,71.24
2016-05-31T09:09:50.165Z,71.34
2016-05-31T09:10:50.168Z,71.53
2016-05-31T09:12:04.173Z,71.24
2016-05-31T09:12:50.158Z,70.56
2016-05-31T09:13:50.114Z,70.41
2016-05-31T09:14:50.101Z,70.6
2016-05-31T09:15:50.072Z,69.93
2016-05-31T09:16:50.075Z,70.21
2016-05-31T09:17:50.046Z,70.89
2016-05-31T09:18:50.034Z,70.66
2016-05-31T09:19:50.020Z,70.89
2016-05-31T09:20:50.008Z,70.66
2016-05-31T09:21:49.994Z,70.41
2016-05-31T09:22:50.779Z,70.31
2016-05-31T09:23:49.999Z,70.21
2016-05-31T09:24:50.097Z,70.12
2016-05-31T09:25:49.927Z,70.31
2016-05-31T09:26:49.899Z,70.02
2016-05-31T09:27:49.901Z,69.35
2016-05-31T09:28:49.873Z,69.54
2016-05-31T09:29:49.907Z,69.15
2016-05-31T09:30:49.847Z,68.42
2016-05-31T09:31:49.818Z,68.04
2016-05-31T09:32:49.822Z,67.74
2016-05-31T09:33:49.807Z,67.07
2016-05-31T09:34:50.171Z,66.39
2016-05-31T09:35:49.813Z,66.39
2016-05-31T09:36:49.768Z,66.2
2016-05-31T09:37:49.991Z,66.3
2016-05-31T09:38:49.947Z,67
2016-05-31T09:39:49.699Z,66.14
2016-05-31T09:40:49.546Z,66.33
2016-05-31T09:41:49.673Z,66.82
2016-05-31T09:42:49.660Z,66.33
2016-05-31T09:43:49.647Z,65.95
2016-05-31T09:44:49.634Z,66.04
2016-05-31T09:45:49.606Z,66.43
2016-05-31T09:46:49.703Z,66.62
2016-05-31T09:47:49.580Z,65.75
2016-05-31T09:48:49.598Z,66.24
2016-05-31T09:49:49.554Z,65.85
2016-05-31T09:50:49.542Z,65.47
2016-05-31T09:51:49.528Z,64.79
2016-05-31T09:52:49.516Z,65.3
2016-05-31T09:53:49.924Z,64.21
2016-05-31T09:54:49.489Z,64.02
2016-05-31T09:55:49.477Z,64.11
2016-05-31T09:56:49.464Z,64.98
2016-05-31T09:57:49.450Z,64.98
2016-05-31T09:58:49.422Z,64.98
2016-05-31T09:59:49.643Z,65.17
2016-05-31T10:00:49.428Z,65.01
2016-05-31T10:01:49.383Z,64.05
2016-05-31T10:02:49.449Z,64.15
2016-05-31T10:03:49.373Z,64.47
2016-05-31T10:04:49.438Z,64.82
2016-05-31T10:05:49.378Z,64.86
2016-05-31T10:06:49.319Z,64.47
2016-05-31T10:07:49.306Z,64.18
2016-05-31T10:08:49.340Z,63.5
2016-05-31T10:09:49.264Z,63.89
2016-05-31T10:10:49.252Z,63.79
2016-05-31T10:11:49.254Z,64.08
2016-05-31T10:12:49.273Z,64.56
2016-05-31T10:13:49.212Z,63.21
2016-05-31T10:14:49.293Z,63.79
2016-05-31T10:15:49.186Z,62.92
2016-05-31T10:16:49.174Z,63.12
2016-05-31T10:17:49.161Z,62.47
2016-05-31T10:18:49.148Z,62.86
2016-05-31T10:19:49.119Z,62.82
2016-05-31T10:20:49.123Z,62.76
2016-05-31T10:21:49.094Z,62.95
2016-05-31T10:22:49.080Z,62.57
2016-05-31T10:23:49.146Z,62.57
2016-05-31T10:24:49.055Z,62.02
2016-05-31T10:25:49.041Z,61.44
2016-05-31T10:26:49.028Z,61.25
2016-05-31T10:27:49.016Z,61.25
2016-05-31T10:28:49.003Z,60.79
2016-05-31T10:29:48.990Z,61.18
2016-05-31T10:30:48.961Z,60.31
2016-05-31T10:31:48.949Z,60.41
2016-05-31T10:32:48.810Z,59.34
2016-05-31T10:33:48.922Z,59.76
2016-05-31T10:34:48.910Z,59.38
2016-05-31T10:35:48.896Z,58.8
2016-05-31T10:36:48.899Z,58.24
2016-05-31T10:37:49.121Z,59.21
2016-05-31T10:38:49.530Z,58.34
2016-05-31T10:39:48.845Z,57.86
2016-05-31T10:40:48.816Z,57.01
2016-05-31T10:41:48.819Z,55.78
2016-05-31T10:42:48.665Z,56.07
2016-05-31T10:43:48.793Z,56.26
2016-05-31T10:44:48.781Z,55.78
2016-05-31T10:45:48.767Z,55.88
2016-05-31T10:46:48.754Z,55.4
2016-05-31T10:47:48.820Z,54.91
2016-05-31T10:48:48.728Z,53.58
2016-05-31T10:51:11.878Z,53.77
2016-05-31T10:55:38.997Z,53.12
2016-05-31T10:56:38.984Z,53.09
2016-05-31T10:57:38.956Z,53
2016-05-31T10:58:38.943Z,51.86
2016-05-31T10:59:38.946Z,51.67
2016-05-31T11:00:38.917Z,51.5
2016-05-31T11:01:38.919Z,51.4
2016-05-31T11:02:38.907Z,50.07
2016-05-31T11:03:38.894Z,50.84
2016-05-31T11:04:38.880Z,50.14
2016-05-31T11:05:38.852Z,50.04
2016-05-31T11:06:38.871Z,50.94
2016-05-31T11:07:38.842Z,50.26
2016-05-31T11:08:38.955Z,50.24
2016-05-31T11:09:38.816Z,50.04
2016-05-31T11:10:38.803Z,49.85
2016-05-31T11:11:38.790Z,49.44
2016-05-31T11:12:38.777Z,49.56
2016-05-31T11:13:38.842Z,48.78
2016-05-31T11:14:38.752Z,49.37
2016-05-31T11:15:38.754Z,48.97
2016-05-31T11:16:38.742Z,47.66
2016-05-31T11:17:38.713Z,47.08
2016-05-31T11:18:38.700Z,48.47
2016-05-31T11:19:38.687Z,46.79
2016-05-31T11:20:38.673Z,47.38
2016-05-31T11:21:38.645Z,46.6
2016-05-31T11:22:38.711Z,45.45
2016-05-31T11:23:39.057Z,45.43
2016-05-31T11:24:38.622Z,43.59
2016-05-31T11:25:39.250Z,42.83
2016-05-31T11:26:38.831Z,43.41
2016-05-31T11:27:38.599Z,42.4
2016-05-31T11:28:38.586Z,41.55
2016-05-31T11:29:38.589Z,41.64
2016-05-31T11:30:38.575Z,41.86
2016-05-31T11:31:38.547Z,39.92
2016-05-31T11:32:38.549Z,39.92
2016-05-31T11:33:38.553Z,39.72
2016-05-31T11:34:38.399Z,39.36
2016-05-31T11:35:38.527Z,39.76
2016-05-31T11:36:38.373Z,41.03
2016-05-31T11:37:38.719Z,40.66
2016-05-31T11:38:38.518Z,40
2016-05-31T11:39:38.521Z,39.92
2016-05-31T11:40:38.510Z,40.01
2016-05-31T11:41:38.512Z,39.34
2016-05-31T11:42:38.342Z,38.28
2016-05-31T11:43:38.502Z,37.52
2016-05-31T11:44:38.348Z,37.35
2016-05-31T11:45:38.491Z,35.1
2016-05-31T11:46:38.494Z,35.02
2016-05-31T11:47:38.496Z,35.08
2016-05-31T11:48:38.498Z,34.34
2016-05-31T11:49:38.486Z,34.16
2016-05-31T11:50:38.489Z,33.98
2016-05-31T11:51:38.492Z,34.57
2016-05-31T11:52:39.385Z,34.38
2016-05-31T11:53:38.481Z,33.9
2016-05-31T11:54:38.484Z,33.53
2016-05-31T11:55:38.471Z,33.33
2016-05-31T11:56:38.520Z,33.62
2016-05-31T11:57:38.320Z,34.21
2016-05-31T11:58:38.480Z,34.47
2016-05-31T11:59:38.482Z,33.01
2016-05-31T12:00:38.485Z,32.75
2016-05-31T12:01:38.502Z,32.46
2016-05-31T12:02:38.490Z,30.98
2016-05-31T12:03:38.494Z,30.13
2016-05-31T12:04:38.324Z,29.75
2016-05-31T12:05:38.499Z,30.04
2016-05-31T12:06:38.485Z,29.83
2016-05-31T12:07:38.487Z,30.02
2016-05-31T12:08:38.507Z,29.94
2016-05-31T12:09:38.494Z,30.22
2016-05-31T12:10:38.496Z,29.66
2016-05-31T12:11:38.499Z,28.79
2016-05-31T12:12:38.501Z,29.08
2016-05-31T12:13:38.504Z,28.61
2016-05-31T12:14:38.507Z,28.23
2016-05-31T12:15:38.509Z,28.99
2016-05-31T12:16:38.528Z,28.79
2016-05-31T12:17:38.515Z,29.39
2016-05-31T12:18:38.361Z,28.71
2016-05-31T12:19:38.504Z,28.92
2016-05-31T12:20:38.523Z,28.91
2016-05-31T12:21:38.510Z,28.23
2016-05-31T12:22:38.513Z,28.02
2016-05-31T12:23:38.718Z,28.61
2016-05-31T12:24:38.517Z,29.3
2016-05-31T12:25:38.520Z,29.02
2016-05-31T12:26:38.539Z,28.34
2016-05-31T12:27:38.370Z,28.47
2016-05-31T12:28:38.528Z,29.14
2016-05-31T12:29:38.531Z,29.03
2016-05-31T12:30:38.534Z,30.21
2016-05-31T12:31:38.552Z,29.49
2016-05-31T12:32:38.414Z,29.41
2016-05-31T12:33:38.557Z,28.03
2016-05-31T12:34:38.794Z,27.67
2016-05-31T12:35:38.547Z,28.15
2016-05-31T12:36:38.550Z,26.98
2016-05-31T12:37:38.553Z,27.57
2016-05-31T12:38:38.415Z,27.59
2016-05-31T12:39:38.574Z,26.42
2016-05-31T12:40:38.560Z,26.62
2016-05-31T12:41:38.563Z,26.41
2016-05-31T12:42:38.582Z,26.63
2016-05-31T12:43:38.601Z,26.63
2016-05-31T12:44:38.415Z,27.6
2016-05-31T12:45:38.590Z,28.17
2016-05-31T12:46:38.576Z,28.95
2016-05-31T12:47:38.720Z,29.6
2016-05-31T12:48:38.583Z,29.5
2016-05-31T12:49:38.601Z,29.88
2016-05-31T12:50:38.604Z,28.91
2016-05-31T12:51:38.606Z,29.8
2016-05-31T12:52:38.875Z,29.6
2016-05-31T12:53:38.595Z,28.91
2016-05-31T12:54:38.614Z,28.25
2016-05-31T12:55:38.601Z,27.88
2016-05-31T12:56:38.604Z,26.81
2016-05-31T12:57:38.606Z,26.93
2016-05-31T12:58:38.625Z,27.5
2016-05-31T12:59:38.456Z,27.61
2016-05-31T13:00:38.458Z,26.52
2016-05-31T13:01:38.617Z,26.45